createdAt,value
2019-05-06T09:07:14.572Z,63.18
2019-05-06T09:08:14.552Z,61.54
2019-05-06T09:09:14.547Z,60.51
2019-05-06T09:10:14.529Z,61.33
2019-05-06T09:11:14.523Z,61.33
2019-05-06T09:12:14.507Z,62.46
2019-05-06T09:13:14.496Z,62.36
2019-05-06T09:14:14.509Z,62.26
2019-05-06T09:15:14.477Z,61.51
2019-05-06T09:16:14.464Z,60.38
2019-05-06T09:17:14.451Z,61.13
2019-05-06T09:18:14.439Z,62.23
2019-05-06T09:19:14.448Z,61.64
2019-05-06T09:20:14.416Z,62.15
2019-05-06T09:21:14.407Z,62.26
2019-05-06T09:22:14.395Z,62.33
2019-05-06T09:23:14.383Z,60.69
2019-05-06T09:24:14.384Z,60.28
2019-05-06T09:25:14.362Z,60.89
2019-05-06T09:26:14.354Z,61.10
2019-05-06T09:27:14.342Z,61.61
2019-05-06T09:28:14.328Z,62.92
2019-05-06T09:29:14.328Z,62.51
2019-05-06T09:30:14.305Z,61.79
2019-05-06T09:31:14.297Z,61.89
2019-05-06T09:32:14.294Z,60.86
2019-05-06T09:33:14.276Z,60.76
2019-05-06T09:34:14.287Z,59.41
2019-05-06T09:35:14.251Z,59.33
2019-05-06T09:36:14.240Z,59.30
2019-05-06T09:37:14.397Z,58.92
2019-05-06T09:38:14.216Z,58.30
2019-05-06T09:39:14.205Z,58.00
2019-05-06T09:40:14.201Z,58.10
2019-05-06T09:41:14.183Z,57.79
2019-05-06T09:42:14.175Z,58.20
2019-05-06T09:43:14.160Z,58.54
2019-05-06T09:44:14.175Z,58.10
2019-05-06T09:45:14.147Z,58.64
2019-05-06T09:46:14.128Z,58.74
2019-05-06T09:47:14.123Z,59.46
2019-05-06T09:48:14.106Z,59.25
2019-05-06T09:49:14.104Z,58.72
2019-05-06T09:50:14.092Z,59.20
2019-05-06T09:51:14.077Z,58.79
2019-05-06T09:52:14.062Z,57.97
2019-05-06T09:53:14.048Z,58.38
2019-05-06T09:54:14.037Z,58.89
2019-05-06T09:55:14.036Z,58.69
2019-05-06T09:56:14.041Z,58.48
2019-05-06T09:57:14.004Z,58.45
2019-05-06T09:58:14.001Z,58.45
2019-05-06T09:59:13.983Z,58.66
2019-05-06T10:00:13.995Z,58.45
2019-05-06T10:01:13.966Z,59.07
2019-05-06T10:02:13.971Z,58.63
2019-05-06T10:03:13.970Z,58.43
2019-05-06T10:04:13.929Z,57.71
2019-05-06T10:05:13.921Z,57.51
2019-05-06T10:06:13.902Z,57.10
2019-05-06T10:07:13.894Z,57.10
2019-05-06T10:08:13.882Z,56.79
2019-05-06T10:09:15.987Z,57.94
2019-05-06T10:10:13.867Z,58.35
2019-05-06T10:11:13.846Z,58.33
2019-05-06T10:12:13.837Z,58.43
2019-05-06T10:13:13.832Z,58.94
2019-05-06T10:14:13.821Z,58.43
2019-05-06T10:15:13.829Z,58.43
2019-05-06T10:16:13.790Z,58.94
2019-05-06T10:17:13.793Z,58.40
2019-05-06T10:18:13.770Z,58.81
2019-05-06T10:19:13.757Z,58.37
2019-05-06T10:20:13.756Z,58.17
2019-05-06T10:21:13.737Z,58.04
2019-05-06T10:22:13.724Z,56.58
2019-05-06T10:23:13.712Z,56.68
2019-05-06T10:24:13.711Z,56.38
2019-05-06T10:25:13.699Z,56.76
2019-05-06T10:26:13.679Z,56.66
2019-05-06T10:27:13.670Z,56.45
2019-05-06T10:28:13.669Z,55.15
2019-05-06T10:29:13.649Z,56.17
2019-05-06T10:30:13.829Z,55.76
2019-05-06T10:31:13.623Z,56.43
2019-05-06T10:32:13.612Z,56.61
2019-05-06T10:33:13.601Z,56.53
2019-05-06T10:34:14.380Z,56.92
2019-05-06T10:35:13.579Z,57.02
2019-05-06T10:36:13.577Z,57.04
2019-05-06T10:37:18.994Z,57.63
2019-05-06T10:38:14.544Z,56.81
2019-05-06T10:39:13.554Z,56.51
2019-05-06T10:40:13.558Z,56.81
2019-05-06T10:41:13.520Z,56.74
2019-05-06T10:42:13.655Z,58.45
2019-05-06T10:43:13.492Z,58.58
2019-05-06T10:44:13.479Z,58.58
2019-05-06T10:45:13.467Z,57.86
2019-05-06T10:46:13.468Z,58.50
2019-05-06T10:47:13.445Z,58.48
2019-05-06T10:48:13.434Z,58.61
2019-05-06T10:49:13.427Z,60.35
2019-05-06T10:50:13.411Z,60.37
2019-05-06T10:51:16.868Z,61.83
2019-05-06T10:52:13.393Z,60.81
2019-05-06T10:53:13.645Z,60.10
2019-05-06T10:54:13.389Z,60.40
2019-05-06T10:55:13.367Z,60.81
2019-05-06T10:56:13.354Z,61.63
2019-05-06T10:57:13.333Z,60.71
2019-05-06T10:58:13.322Z,60.50
2019-05-06T10:59:13.313Z,60.50
2019-05-06T11:00:13.301Z,61.01
2019-05-06T11:01:13.308Z,60.50
2019-05-06T11:02:13.278Z,60.40
2019-05-06T11:03:14.862Z,60.27
2019-05-06T11:04:13.256Z,61.43
2019-05-06T11:05:13.247Z,60.71
2019-05-06T11:06:13.326Z,61.60
2019-05-06T11:07:28.237Z,61.60
2019-05-06T11:08:14.211Z,61.50
2019-05-06T11:09:13.608Z,61.19
2019-05-06T11:10:24.011Z,61.50
2019-05-06T11:11:20.068Z,61.29
2019-05-06T11:12:14.165Z,60.55
2019-05-06T11:13:13.238Z,60.65
2019-05-06T11:14:13.151Z,60.37
2019-05-06T11:15:13.132Z,60.06
2019-05-06T11:16:13.130Z,60.37
2019-05-06T11:17:13.112Z,60.27
2019-05-06T11:18:13.705Z,59.45
2019-05-06T11:19:13.407Z,60.37
2019-05-06T11:20:14.038Z,60.75
2019-05-06T11:21:13.099Z,60.88
2019-05-06T11:22:13.071Z,60.78
2019-05-06T11:23:14.201Z,60.88
2019-05-06T11:24:13.037Z,60.47
2019-05-06T11:25:13.019Z,60.81
2019-05-06T11:26:13.221Z,60.68
2019-05-06T11:27:27.527Z,61.73
2019-05-06T11:28:13.989Z,60.60
2019-05-06T11:29:12.975Z,60.91
2019-05-06T11:30:12.965Z,60.40
2019-05-06T11:31:14.130Z,60.63
2019-05-06T11:32:12.942Z,59.30
2019-05-06T11:33:13.123Z,60.53
2019-05-06T11:34:12.920Z,60.86
2019-05-06T11:35:12.912Z,60.56
2019-05-06T11:36:15.256Z,60.74
2019-05-06T11:37:14.923Z,60.63
2019-05-06T11:38:12.875Z,61.27
2019-05-06T11:39:14.214Z,61.35
2019-05-06T11:40:16.499Z,59.92
2019-05-06T11:41:13.290Z,60.42
2019-05-06T11:42:24.958Z,60.84
2019-05-06T11:43:13.817Z,60.74
2019-05-06T11:44:12.917Z,59.20
2019-05-06T11:45:12.796Z,59.09
2019-05-06T11:46:12.784Z,58.66
2019-05-06T11:47:12.781Z,58.66
2019-05-06T11:48:14.663Z,58.07
2019-05-06T11:49:12.753Z,58.35
2019-05-06T11:50:13.076Z,58.56
2019-05-06T11:51:12.934Z,56.82
2019-05-06T11:52:13.061Z,57.74
2019-05-06T11:53:12.707Z,58.63
2019-05-06T11:54:19.381Z,57.07
2019-05-06T11:55:27.520Z,56.99
2019-05-06T11:56:13.673Z,57.10
2019-05-06T11:57:12.679Z,56.66
2019-05-06T11:58:12.748Z,55.94
2019-05-06T11:59:13.005Z,55.33
2019-05-06T12:00:12.681Z,55.43
2019-05-06T12:01:13.479Z,55.02
2019-05-06T12:02:12.783Z,55.21
2019-05-06T12:03:12.808Z,55.00
2019-05-06T12:04:13.872Z,54.08
2019-05-06T12:05:12.580Z,55.21
2019-05-06T12:06:13.209Z,54.26
2019-05-06T12:07:15.706Z,54.39
2019-05-06T12:08:15.590Z,53.95
2019-05-06T12:09:16.594Z,53.88
2019-05-06T12:10:12.975Z,54.16
2019-05-06T12:11:12.837Z,53.85
2019-05-06T12:12:12.877Z,54.26
2019-05-06T12:13:12.486Z,53.75
2019-05-06T12:14:12.586Z,54.05
2019-05-06T12:15:12.702Z,54.87
2019-05-06T12:16:14.212Z,54.46
2019-05-06T12:17:12.852Z,54.36
2019-05-06T12:18:12.544Z,54.36
2019-05-06T12:19:13.068Z,54.36
2019-05-06T12:20:13.174Z,54.26
2019-05-06T12:21:18.891Z,53.75
2019-05-06T12:22:13.392Z,53.75
2019-05-06T12:23:15.574Z,53.34
2019-05-06T12:24:12.381Z,52.52
2019-05-06T12:25:15.208Z,52.65
2019-05-06T12:26:13.174Z,52.75
2019-05-06T12:27:12.724Z,54.28
2019-05-06T12:28:12.453Z,54.49
2019-05-06T12:29:12.774Z,53.57
2019-05-06T12:30:12.406Z,53.36
2019-05-06T12:31:12.774Z,53.88
2019-05-06T12:32:12.908Z,52.52
2019-05-06T12:33:13.004Z,52.24
2019-05-06T12:34:14.500Z,52.34
2019-05-06T12:35:12.543Z,52.24
2019-05-06T12:36:12.835Z,53.19
2019-05-06T12:37:12.216Z,53.39
2019-05-06T12:38:26.517Z,52.78
2019-05-06T12:39:16.134Z,52.78
2019-05-06T12:40:12.561Z,53.69
2019-05-06T12:41:13.885Z,53.49
2019-05-06T12:42:12.160Z,53.49
2019-05-06T12:43:12.931Z,53.59
2019-05-06T12:44:13.056Z,53.49
2019-05-06T12:45:13.068Z,53.90
2019-05-06T12:46:13.245Z,53.49
2019-05-06T12:47:13.416Z,52.78
2019-05-06T12:48:13.054Z,52.57
2019-05-06T12:49:12.773Z,51.14
2019-05-06T12:50:12.075Z,51.95
2019-05-06T12:51:12.062Z,52.78
2019-05-06T12:52:12.407Z,53.59
2019-05-06T12:53:13.329Z,52.87
2019-05-06T12:54:12.932Z,51.75
2019-05-06T12:55:21.517Z,51.75
2019-05-06T12:56:13.009Z,52.37
2019-05-06T12:57:12.587Z,52.57
2019-05-06T12:58:13.557Z,51.86
2019-05-06T12:59:12.786Z,51.73
2019-05-06T13:00:13.058Z,51.21
2019-05-06T13:01:13.647Z,50.68
2019-05-06T13:02:13.249Z,49.27
2019-05-06T13:03:12.676Z,50.37
2019-05-06T13:04:13.527Z,51.09
2019-05-06T13:05:12.632Z,51.27
2019-05-06T13:06:12.975Z,50.15
2019-05-06T13:07:11.881Z,49.30
2019-05-06T13:08:18.734Z,48.92
2019-05-06T13:09:13.031Z,49.02
2019-05-06T13:10:13.139Z,49.10
2019-05-06T13:11:13.138Z,48.82
2019-05-06T13:12:12.341Z,49.00
2019-05-06T13:13:12.747Z,49.30
2019-05-06T13:14:12.780Z,49.30
2019-05-06T13:15:13.313Z,49.41
2019-05-06T13:16:12.585Z,49.21
2019-05-06T13:17:11.770Z,49.22
2019-05-06T13:18:11.772Z,49.71
2019-05-06T13:19:12.275Z,49.22
2019-05-06T13:20:14.690Z,49.30
2019-05-06T13:21:12.713Z,49.43
2019-05-06T13:22:13.483Z,50.35
2019-05-06T13:23:17.296Z,49.54
2019-05-06T13:24:12.690Z,49.74
2019-05-06T13:25:13.603Z,50.04
2019-05-06T13:26:12.824Z,50.25
2019-05-06T13:27:12.617Z,49.66
2019-05-06T13:28:12.909Z,50.78
2019-05-06T13:29:13.016Z,49.55
2019-05-06T13:30:12.895Z,51.09
2019-05-06T13:31:20.482Z,51.19
2019-05-06T13:32:12.817Z,51.09
2019-05-06T13:33:13.626Z,50.78
2019-05-06T13:34:11.676Z,51.19
2019-05-06T13:35:12.262Z,51.40
2019-05-06T13:36:13.196Z,50.99
2019-05-06T13:37:12.842Z,51.40
2019-05-06T13:38:11.534Z,50.86
2019-05-06T13:39:14.909Z,51.07
2019-05-06T13:40:11.657Z,51.40
2019-05-06T13:41:12.691Z,51.40
2019-05-06T13:42:13.220Z,51.98
2019-05-06T13:43:13.077Z,51.17
2019-05-06T13:44:13.136Z,51.04
2019-05-06T13:45:12.139Z,51.35
2019-05-06T13:46:12.373Z,51.15
2019-05-06T13:47:12.142Z,50.81
2019-05-06T13:48:13.253Z,51.22
2019-05-06T13:49:13.359Z,51.02
2019-05-06T13:50:12.183Z,51.02
2019-05-06T13:51:12.428Z,51.61
2019-05-06T13:52:12.700Z,51.02
2019-05-06T13:53:14.422Z,51.10
2019-05-06T13:54:15.470Z,51.10
2019-05-06T13:55:12.942Z,49.37
2019-05-06T13:56:12.085Z,50.18
2019-05-06T13:57:12.463Z,50.67
2019-05-06T13:58:12.489Z,49.75
2019-05-06T13:59:12.892Z,49.75
2019-05-06T14:00:13.379Z,48.93
2019-05-06T14:01:11.280Z,48.71
2019-05-06T14:02:11.283Z,48.81
2019-05-06T14:03:11.257Z,48.71
2019-05-06T14:04:12.932Z,49.11
2019-05-06T14:05:12.103Z,48.91
2019-05-06T14:06:12.298Z,49.83
2019-05-06T14:07:13.072Z,49.19
2019-05-06T14:08:13.031Z,49.70
2019-05-06T14:09:27.983Z,49.07
2019-05-06T14:10:13.166Z,48.58
2019-05-06T14:11:13.122Z,48.58
2019-05-06T14:12:11.155Z,47.26
2019-05-06T14:13:12.854Z,47.26
2019-05-06T14:14:12.536Z,47.66
2019-05-06T14:15:12.480Z,48.99
2019-05-06T14:16:13.108Z,47.89
2019-05-06T14:17:12.737Z,48.58
2019-05-06T14:18:13.486Z,49.01
2019-05-06T14:19:13.201Z,49.73
2019-05-06T14:20:12.523Z,48.89
2019-05-06T14:21:12.398Z,49.90
2019-05-06T14:22:12.503Z,49.70
2019-05-06T14:23:12.614Z,49.17
2019-05-06T14:24:13.282Z,48.94
2019-05-06T14:25:12.680Z,49.51
2019-05-06T14:26:12.603Z,49.48
2019-05-06T14:27:10.988Z,47.33
2019-05-06T14:28:12.430Z,45.83
2019-05-06T14:29:12.782Z,46.94
2019-05-06T14:30:11.046Z,46.82
2019-05-06T14:31:10.968Z,46.82
2019-05-06T14:32:12.298Z,45.80
2019-05-06T14:33:12.714Z,46.11
2019-05-06T14:34:11.934Z,46.44
2019-05-06T14:35:12.166Z,46.53
2019-05-06T14:36:12.774Z,47.27
2019-05-06T14:37:10.897Z,48.49
2019-05-06T14:38:13.513Z,48.19
2019-05-06T14:39:12.795Z,47.17
2019-05-06T14:40:11.865Z,47.27
2019-05-06T14:41:13.112Z,47.75
2019-05-06T14:42:12.646Z,47.41
2019-05-06T14:43:13.343Z,46.82
2019-05-06T14:44:12.205Z,46.21
2019-05-06T14:45:12.542Z,45.60
2019-05-06T14:46:10.925Z,45.90
2019-05-06T14:47:12.664Z,46.03
2019-05-06T14:48:10.759Z,47.17
2019-05-06T14:49:10.762Z,47.27
2019-05-06T14:50:14.506Z,47.17
2019-05-06T14:51:12.897Z,46.66
2019-05-06T14:52:12.905Z,46.07
2019-05-06T14:53:13.034Z,46.78
2019-05-06T14:54:14.517Z,46.70
2019-05-06T14:55:12.564Z,46.70
2019-05-06T14:56:12.920Z,46.86
2019-05-06T14:57:12.209Z,45.70
2019-05-06T14:58:12.076Z,44.77
2019-05-06T14:59:12.588Z,46.86
2019-05-06T15:00:12.176Z,45.31
2019-05-06T15:01:13.521Z,44.27
2019-05-06T15:02:10.601Z,44.27
2019-05-06T15:03:12.786Z,44.10
2019-05-06T15:04:12.459Z,44.73
2019-05-06T15:05:13.009Z,43.81
2019-05-06T15:06:12.523Z,44.22
2019-05-06T15:07:12.771Z,44.36
2019-05-06T15:08:12.245Z,44.87
2019-05-06T15:09:13.100Z,45.09
2019-05-06T15:10:20.374Z,45.09
2019-05-06T15:11:12.224Z,45.52
2019-05-06T15:12:12.792Z,46.13
2019-05-06T15:13:12.497Z,44.81
2019-05-06T15:14:12.895Z,45.01
2019-05-06T15:15:12.114Z,45.14
2019-05-06T15:16:10.442Z,45.76
2019-05-06T15:17:10.432Z,45.07
2019-05-06T15:18:12.593Z,46.70
2019-05-06T15:19:12.764Z,47.03
2019-05-06T15:20:12.128Z,47.13
2019-05-06T15:21:31.463Z,47.03
2019-05-06T15:22:12.969Z,47.34
2019-05-06T15:23:10.365Z,48.15
2019-05-06T15:24:10.351Z,48.15
2019-05-06T15:25:12.784Z,48.15
2019-05-06T15:26:12.277Z,48.76
2019-05-06T15:27:11.971Z,48.03
2019-05-06T15:28:10.311Z,49.07
2019-05-06T15:29:12.525Z,48.46
2019-05-06T15:30:12.304Z,47.54
2019-05-06T15:31:12.323Z,48.86
2019-05-06T15:32:12.849Z,49.15
2019-05-06T15:33:10.252Z,47.24
2019-05-06T15:34:10.243Z,47.13
2019-05-06T15:35:10.230Z,47.66
2019-05-06T15:36:12.705Z,47.26
2019-05-06T15:37:12.825Z,48.10
2019-05-06T15:38:10.197Z,48.71
2019-05-06T15:39:10.185Z,49.32
2019-05-06T15:40:12.158Z,49.01
2019-05-06T15:41:10.176Z,49.34
2019-05-06T15:42:10.150Z,50.05
2019-05-06T15:43:10.139Z,49.46
2019-05-06T15:44:12.481Z,50.38
2019-05-06T15:45:12.443Z,50.28
2019-05-06T15:46:12.135Z,49.38
2019-05-06T15:47:10.097Z,50.10
2019-05-06T15:48:10.086Z,50.61
2019-05-06T15:49:10.076Z,51.35
2019-05-06T15:50:12.518Z,51.45
2019-05-06T15:51:12.094Z,51.96
2019-05-06T15:52:12.311Z,52.37
2019-05-06T15:53:10.027Z,52.37
2019-05-06T15:54:10.018Z,52.39
2019-05-06T15:55:10.004Z,52.60
2019-05-06T15:56:12.164Z,52.91
2019-05-06T15:57:09.984Z,52.91
2019-05-06T15:58:12.306Z,53.03
2019-05-06T15:59:11.994Z,52.70
2019-05-06T16:00:09.956Z,53.62
2019-05-06T16:01:09.947Z,53.34
2019-05-06T16:02:09.930Z,54.05
2019-05-06T16:03:09.915Z,54.64
2019-05-06T16:04:12.117Z,56.48
2019-05-06T16:05:13.761Z,57.91
2019-05-06T16:06:12.424Z,59.27
2019-05-06T16:07:12.542Z,60.80
2019-05-06T16:08:09.874Z,62.13
2019-05-06T16:09:09.854Z,62.98
2019-05-06T16:10:09.841Z,64.30
2019-05-06T16:11:09.893Z,64.81
2019-05-06T16:12:09.823Z,65.33
2019-05-06T16:13:09.805Z,65.84
2019-05-06T16:14:12.307Z,66.07
2019-05-06T16:15:09.789Z,66.48
2019-05-06T16:16:09.820Z,66.78
2019-05-06T16:17:09.758Z,66.78
2019-05-06T16:18:09.748Z,67.30
2019-05-06T16:19:09.739Z,66.82
2019-05-06T16:20:09.725Z,67.81
2019-05-06T16:21:09.724Z,68.84
2019-05-06T16:22:09.710Z,69.04
2019-05-06T16:23:09.693Z,69.38
2019-05-06T16:24:09.682Z,69.27
2019-05-06T16:25:09.680Z,69.58
2019-05-06T16:26:09.678Z,70.29
2019-05-06T16:27:09.656Z,69.79
2019-05-06T16:28:09.641Z,69.07
2019-05-06T16:29:09.663Z,70.50
2019-05-06T16:30:09.613Z,69.92
2019-05-06T16:31:09.845Z,70.50
2019-05-06T16:32:09.591Z,70.53
2019-05-06T16:33:09.579Z,70.53
2019-05-06T16:34:09.570Z,71.97
2019-05-06T16:35:09.556Z,70.84
2019-05-06T16:36:09.555Z,71.15
2019-05-06T16:37:09.535Z,71.77
2019-05-06T16:38:09.523Z,72.17
2019-05-06T16:39:09.533Z,71.36
2019-05-06T16:40:09.502Z,70.43
2019-05-06T16:41:13.231Z,70.77
2019-05-06T16:42:12.819Z,71.18
2019-05-06T16:43:09.468Z,71.59
2019-05-06T16:44:09.502Z,72.00
2019-05-06T16:45:09.457Z,71.39
2019-05-06T16:46:09.450Z,71.18
2019-05-06T16:47:09.421Z,72.31
2019-05-06T16:48:09.412Z,72.52
2019-05-06T16:49:09.399Z,71.83
2019-05-06T16:50:09.389Z,72.34
2019-05-06T16:51:09.383Z,72.24
2019-05-06T16:52:09.376Z,72.55
2019-05-06T16:53:09.355Z,72.65
2019-05-06T16:54:09.345Z,72.24
2019-05-06T16:55:09.331Z,72.58
2019-05-06T16:56:09.320Z,72.68
2019-05-06T16:57:09.318Z,72.38
2019-05-06T16:58:09.301Z,72.41
2019-05-06T16:59:09.290Z,72.58
2019-05-06T17:00:09.277Z,72.78
2019-05-06T17:01:09.266Z,72.58
2019-05-06T17:02:09.266Z,72.58
2019-05-06T17:03:09.268Z,72.72
2019-05-06T17:04:09.237Z,72.48
2019-05-06T17:05:09.224Z,72.58
2019-05-06T17:06:09.208Z,73.13
2019-05-06T17:07:09.210Z,72.99
2019-05-06T17:08:09.186Z,73.33
2019-05-06T17:09:19.927Z,74.02
2019-05-06T17:10:11.846Z,74.22
2019-05-06T17:11:09.157Z,73.91
2019-05-06T17:12:09.153Z,73.71
2019-05-06T17:13:09.136Z,73.13
2019-05-06T17:14:09.120Z,73.02
2019-05-06T17:15:09.109Z,72.99
2019-05-06T17:16:09.098Z,73.19
2019-05-06T17:17:09.095Z,73.61
2019-05-06T17:18:09.087Z,72.51
2019-05-06T17:19:09.065Z,73.44
2019-05-06T17:20:09.052Z,73.33
2019-05-06T17:21:09.043Z,73.13
2019-05-06T17:22:09.041Z,73.54
2019-05-06T17:23:09.019Z,73.85
2019-05-06T17:24:09.010Z,73.91
2019-05-06T17:25:09.043Z,73.95
2019-05-06T17:26:08.986Z,73.54
2019-05-06T17:27:08.992Z,73.44
2019-05-06T17:28:08.965Z,73.23
2019-05-06T17:29:08.982Z,73.02
2019-05-06T17:30:08.942Z,73.02
2019-05-06T17:31:08.933Z,72.82
2019-05-06T17:32:08.928Z,73.54
2019-05-06T17:33:08.910Z,73.23
2019-05-06T17:34:08.907Z,73.23
2019-05-06T17:35:08.888Z,72.72
2019-05-06T17:36:08.876Z,72.51
2019-05-06T17:37:08.872Z,72.61
2019-05-06T17:38:08.856Z,73.23
2019-05-06T17:39:08.845Z,73.13
2019-05-06T17:40:11.766Z,73.54
2019-05-06T17:41:12.171Z,73.44
2019-05-06T17:42:08.830Z,73.02
2019-05-06T17:43:08.804Z,72.51
2019-05-06T17:44:08.787Z,72.41
2019-05-06T17:45:08.779Z,72.51
2019-05-06T17:46:08.764Z,72.00
2019-05-06T17:47:08.752Z,71.59
2019-05-06T17:48:08.751Z,70.97
2019-05-06T17:49:08.731Z,71.39
2019-05-06T17:50:08.799Z,71.59
2019-05-06T17:51:08.708Z,70.87
2019-05-06T17:52:08.701Z,70.67
2019-05-06T17:53:08.694Z,70.87
2019-05-06T17:54:08.674Z,70.05
2019-05-06T17:55:08.669Z,70.60
2019-05-06T17:56:08.659Z,70.67
2019-05-06T17:57:08.640Z,70.60
2019-05-06T17:58:08.640Z,70.90
2019-05-06T17:59:08.619Z,71.62
2019-05-06T18:00:08.607Z,71.01
2019-05-06T18:01:08.597Z,71.52
2019-05-06T18:02:08.586Z,71.42
2019-05-06T18:03:08.583Z,70.90
2019-05-06T18:04:08.566Z,70.90
2019-05-06T18:05:08.556Z,71.01
2019-05-06T18:06:13.699Z,70.90
2019-05-06T18:07:09.530Z,71.25
2019-05-06T18:08:08.528Z,71.93
2019-05-06T18:09:08.510Z,72.03
2019-05-06T18:10:08.498Z,72.34
2019-05-06T18:11:08.484Z,72.03
2019-05-06T18:12:08.475Z,72.14
2019-05-06T18:13:08.478Z,72.65
2019-05-06T18:14:08.453Z,72.14
2019-05-06T18:15:08.443Z,72.24
2019-05-06T18:16:08.431Z,72.03
2019-05-06T18:17:08.418Z,71.52
2019-05-06T18:18:08.417Z,71.42
2019-05-06T18:19:08.400Z,71.83
2019-05-06T18:20:08.385Z,71.62
2019-05-06T18:21:08.375Z,71.52
2019-05-06T18:22:08.367Z,72.44
2019-05-06T18:23:08.376Z,72.44
2019-05-06T18:24:09.905Z,72.55
2019-05-06T18:25:08.337Z,72.55
2019-05-06T18:26:08.323Z,72.72
2019-05-06T18:27:08.305Z,72.44
2019-05-06T18:28:08.306Z,72.65
2019-05-06T18:29:08.284Z,72.65
2019-05-06T18:30:16.182Z,72.58
2019-05-06T18:31:09.263Z,73.36
2019-05-06T18:32:08.252Z,73.40
2019-05-06T18:33:08.255Z,73.40
2019-05-06T18:34:08.229Z,72.85
2019-05-06T18:35:08.218Z,73.50
2019-05-06T18:36:08.208Z,73.61
2019-05-06T18:37:08.194Z,73.10
2019-05-06T18:38:08.206Z,73.61
2019-05-06T18:39:08.380Z,74.53
2019-05-06T18:40:08.168Z,74.15
2019-05-06T18:41:08.166Z,74.98
2019-05-06T18:42:17.019Z,75.08
2019-05-06T18:43:09.151Z,76.10
2019-05-06T18:44:08.119Z,76.10
2019-05-06T18:45:08.119Z,76.62
2019-05-06T18:46:08.098Z,76.31
2019-05-06T18:47:08.082Z,76.62
2019-05-06T18:48:08.077Z,76.62
2019-05-06T18:49:08.492Z,77.17
2019-05-06T18:50:08.049Z,77.78
2019-05-06T18:51:08.077Z,77.78
2019-05-06T18:52:08.027Z,77.78
2019-05-06T18:53:08.032Z,78.09
